Time;durP1;ratioP1;P1;durP2;ratioP2;P2;SDS_P1;SDS_P2;PMS_P1;PMS_P2;Temp;Humidity;BMP_temperature;BMP_pressure;BME280_temperature;BME280_humidity;BME280_pressure;Samples;Min_cycle;Max_cycle;Signal;HPM_P1;HPM_P2
2021/09/09 04:22:20;;;;;;;7.50;2.67;;;22.40;69.90;;;;;;5014737;28;80608;-53
2021/09/09 04:24:45;;;;;;;7.03;2.90;;;22.40;69.80;;;;;;5012602;28;80885;-51
2021/09/09 04:27:11;;;;;;;6.25;3.00;;;22.40;70.70;;;;;;5007714;28;80473;-51
2021/09/09 04:29:37;;;;;;;7.60;2.90;;;22.50;70.80;;;;;;5004227;28;83554;-51
2021/09/09 04:32:03;;;;;;;13.73;3.00;;;22.50;70.40;;;;;;5006585;28;80976;-51
2021/09/09 04:34:29;;;;;;;12.25;2.95;;;22.60;70.10;;;;;;5013568;28;81158;-53
2021/09/09 04:36:54;;;;;;;10.23;2.35;;;22.70;69.90;;;;;;5005854;28;81525;-56
2021/09/09 04:39:20;;;;;;;11.10;2.85;;;22.80;69.80;;;;;;5008767;28;82090;-53
2021/09/09 04:41:45;;;;;;;5.45;2.67;;;22.80;69.40;;;;;;5019282;28;80732;-52
2021/09/09 04:44:11;;;;;;;12.05;2.38;;;22.80;69.40;;;;;;5013470;28;80794;-53
2021/09/09 04:46:37;;;;;;;15.45;2.83;;;22.90;69.40;;;;;;5008853;28;80936;-52
2021/09/09 04:49:02;;;;;;;13.50;3.67;;;22.90;69.60;;;;;;5004749;28;81285;-55
2021/09/09 04:51:28;;;;;;;15.90;2.65;;;23.00;69.20;;;;;;5002640;28;81366;-56
2021/09/09 04:53:54;;;;;;;19.08;3.25;;;23.00;69.30;;;;;;5006908;28;81035;-54
2021/09/09 04:56:19;;;;;;;8.35;2.83;;;23.00;69.00;;;;;;5002473;28;80946;-53
2021/09/09 04:58:45;;;;;;;4.95;2.38;;;23.10;69.20;;;;;;5003392;28;82063;-53
2021/09/09 05:01:11;;;;;;;8.55;2.75;;;23.10;69.30;;;;;;5002236;28;80987;-56
2021/09/09 05:03:37;;;;;;;8.45;2.85;;;23.10;68.90;;;;;;5003124;28;81034;-55
2021/09/09 05:06:02;;;;;;;16.65;2.80;;;23.10;69.20;;;;;;5001129;28;81026;-52
2021/09/09 05:08:28;;;;;;;10.98;2.60;;;23.10;68.60;;;;;;5002810;28;80984;-55
2021/09/09 05:10:54;;;;;;;19.75;2.47;;;23.20;68.80;;;;;;5002553;28;81277;-53
2021/09/09 05:13:19;;;;;;;8.55;2.60;;;23.20;67.30;;;;;;5002725;28;80862;-53
2021/09/09 05:15:45;;;;;;;17.35;2.95;;;23.20;67.70;;;;;;5002835;28;80655;-52
2021/09/09 05:18:11;;;;;;;12.70;3.20;;;23.30;67.80;;;;;;5002405;28;81049;-55
2021/09/09 05:20:37;;;;;;;31.25;3.17;;;23.30;67.40;;;;;;5002020;28;81512;-54
2021/09/09 05:23:03;;;;;;;17.60;3.15;;;23.30;67.50;;;;;;4995537;28;82342;-53
2021/09/09 05:25:28;;;;;;;19.13;2.67;;;23.30;67.20;;;;;;5003830;28;80831;-56
2021/09/09 05:27:54;;;;;;;10.57;2.67;;;23.30;67.70;;;;;;5002357;28;80967;-57
2021/09/09 05:30:20;;;;;;;11.02;2.85;;;23.30;67.50;;;;;;5002039;28;81497;-53
2021/09/09 05:32:46;;;;;;;11.38;2.45;;;23.30;67.00;;;;;;4994410;28;81614;-56
2021/09/09 05:35:12;;;;;;;15.38;2.75;;;23.40;67.60;;;;;;4988549;28;80760;-54
2021/09/09 05:37:37;;;;;;;7.20;2.53;;;23.40;67.60;;;;;;4990141;28;81225;-54
2021/09/09 05:40:04;;;;;;;5.03;2.10;;;23.40;67.50;;;;;;4991401;28;81410;-55
2021/09/09 05:42:30;;;;;;;8.23;2.63;;;23.40;67.50;;;;;;4995059;28;80983;-52
2021/09/09 05:44:56;;;;;;;9.43;2.17;;;23.40;67.60;;;;;;4993705;28;80603;-53
2021/09/09 05:47:22;;;;;;;7.72;2.85;;;23.40;67.50;;;;;;4985372;28;81263;-52
2021/09/09 05:49:47;;;;;;;8.20;2.67;;;23.40;67.60;;;;;;4989521;28;82460;-54
2021/09/09 05:52:13;;;;;;;7.57;2.22;;;23.40;67.80;;;;;;4988743;28;80759;-52
2021/09/09 05:54:39;;;;;;;6.90;2.53;;;23.40;67.60;;;;;;4988750;28;80733;-55
2021/09/09 05:57:05;;;;;;;4.28;2.50;;;23.40;67.50;;;;;;4991975;28;80906;-53
2021/09/09 05:59:31;;;;;;;5.90;2.60;;;23.40;67.40;;;;;;4987575;28;81331;-54
2021/09/09 06:01:57;;;;;;;7.15;2.13;;;23.40;67.40;;;;;;4989305;28;80959;-56
2021/09/09 06:04:26;;;;;;;6.28;2.47;;;23.40;67.30;;;;;;4988566;28;81371;-55
2021/09/09 06:06:52;;;;;;;5.50;2.20;;;23.50;67.40;;;;;;4992036;28;81833;-53
2021/09/09 06:09:18;;;;;;;4.97;2.53;;;23.50;67.40;;;;;;4988309;28;80932;-56
2021/09/09 06:11:44;;;;;;;5.18;2.15;;;23.50;67.30;;;;;;4988299;28;80858;-55
2021/09/09 06:14:10;;;;;;;4.90;2.15;;;23.50;67.20;;;;;;4988127;28;80849;-54
2021/09/09 06:16:38;;;;;;;5.88;2.75;;;23.50;67.30;;;;;;4989228;28;81632;-54
2021/09/09 06:19:04;;;;;;;7.57;2.50;;;23.50;67.40;;;;;;4988017;28;83599;-54
2021/09/09 06:21:30;;;;;;;4.38;2.10;;;23.50;67.50;;;;;;4988036;28;81966;-53
2021/09/09 06:23:56;;;;;;;5.35;2.30;;;23.50;67.50;;;;;;4990475;28;81029;-53
2021/09/09 06:26:22;;;;;;;4.97;2.00;;;23.50;67.40;;;;;;4990625;28;83497;-54
2021/09/09 06:28:47;;;;;;;5.55;2.05;;;23.50;67.40;;;;;;4987828;28;81552;-56
2021/09/09 06:31:14;;;;;;;4.28;2.35;;;23.50;67.40;;;;;;4988725;28;80622;-56
2021/09/09 06:33:40;;;;;;;4.97;2.10;;;23.60;67.50;;;;;;4985720;28;82542;-56
2021/09/09 06:36:06;;;;;;;4.38;1.85;;;23.50;67.50;;;;;;4988473;28;81167;-56
2021/09/09 06:38:32;;;;;;;3.83;2.22;;;23.50;67.50;;;;;;4983046;28;82726;-54
2021/09/09 06:40:57;;;;;;;5.63;1.83;;;23.50;67.40;;;;;;4985549;28;81449;-54
2021/09/09 06:43:23;;;;;;;5.28;2.95;;;23.50;67.40;;;;;;4987390;28;80575;-53
2021/09/09 06:45:49;;;;;;;4.88;2.17;;;23.50;67.20;;;;;;4992381;28;81033;-53
2021/09/09 06:48:15;;;;;;;5.55;2.35;;;23.50;67.20;;;;;;4987029;28;80857;-56
2021/09/09 06:50:41;;;;;;;3.38;2.08;;;23.60;67.10;;;;;;4987504;28;81074;-55
2021/09/09 06:53:07;;;;;;;5.07;2.38;;;23.60;67.10;;;;;;4982136;28;80758;-54
2021/09/09 06:55:33;;;;;;;3.67;1.88;;;23.60;67.00;;;;;;4986985;28;81240;-55
2021/09/09 06:57:59;;;;;;;5.28;2.25;;;23.60;67.10;;;;;;4988050;28;81727;-55
2021/09/09 07:00:25;;;;;;;3.35;1.65;;;23.60;67.10;;;;;;4987031;28;81965;-55
2021/09/09 07:02:51;;;;;;;3.83;2.30;;;23.60;67.30;;;;;;4986805;28;81437;-53
2021/09/09 07:05:16;;;;;;;4.63;1.75;;;23.60;67.20;;;;;;4986858;28;83717;-52
2021/09/09 07:07:42;;;;;;;4.07;1.73;;;23.60;67.30;;;;;;4987634;28;81388;-54
2021/09/09 07:10:09;;;;;;;7.03;2.05;;;23.60;67.40;;;;;;4988211;28;80851;-58
2021/09/09 07:12:35;;;;;;;4.15;2.17;;;23.60;67.30;;;;;;4986938;28;81106;-53
2021/09/09 07:15:01;;;;;;;3.30;1.50;;;23.60;67.40;;;;;;4986836;28;83440;-53
2021/09/09 07:17:26;;;;;;;4.13;2.00;;;23.60;67.40;;;;;;4987835;28;81095;-55
2021/09/09 07:19:52;;;;;;;3.92;2.05;;;23.60;67.50;;;;;;4987348;28;81070;-55
2021/09/09 07:22:18;;;;;;;3.83;2.10;;;23.60;67.40;;;;;;4987715;28;81374;-56
2021/09/09 07:24:43;;;;;;;4.38;1.67;;;23.60;67.50;;;;;;4987654;28;81096;-55
2021/09/09 07:27:09;;;;;;;5.35;2.00;;;23.60;67.50;;;;;;4986880;28;81345;-55
2021/09/09 07:29:35;;;;;;;5.50;1.75;;;23.60;67.50;;;;;;4987444;28;81451;-54
2021/09/09 07:32:01;;;;;;;4.45;1.88;;;23.60;67.50;;;;;;4987709;28;80963;-57
2021/09/09 07:34:26;;;;;;;5.07;2.05;;;23.60;67.50;;;;;;4987296;28;83637;-53
2021/09/09 07:36:54;;;;;;;4.38;2.08;;;23.60;67.50;;;;;;4987521;28;81612;-55
2021/09/09 07:39:19;;;;;;;5.18;1.67;;;23.60;67.50;;;;;;4985507;28;82009;-55
2021/09/09 07:41:46;;;;;;;6.07;2.25;;;23.60;67.60;;;;;;4987046;28;82640;-55
2021/09/09 07:44:11;;;;;;;3.67;1.75;;;23.60;67.50;;;;;;4976036;28;81755;-56
2021/09/09 07:46:37;;;;;;;2.80;1.60;;;23.60;67.60;;;;;;4986480;28;82367;-57
2021/09/09 07:49:04;;;;;;;5.20;2.25;;;23.70;67.60;;;;;;4982315;28;80429;-55
2021/09/09 07:51:29;;;;;;;3.70;1.75;;;23.60;67.50;;;;;;4979390;28;80877;-57
2021/09/09 07:53:55;;;;;;;3.78;1.60;;;23.60;67.90;;;;;;4977584;28;81589;-57
2021/09/09 07:56:21;;;;;;;5.65;1.95;;;23.60;67.70;;;;;;4984085;28;81406;-57
2021/09/09 07:58:49;;;;;;;6.22;2.10;;;23.60;68.30;;;;;;4981663;28;81113;-53
2021/09/09 08:01:20;;;;;;;5.72;1.85;;;23.70;68.20;;;;;;4979611;28;80887;-54
2021/09/09 08:03:47;;;;;;;3.63;1.75;;;23.70;68.40;;;;;;4976426;28;80762;-57
2021/09/09 08:06:13;;;;;;;6.05;1.92;;;23.70;68.50;;;;;;4987281;28;81620;-53
2021/09/09 08:08:39;;;;;;;6.75;2.10;;;23.70;68.30;;;;;;4987306;28;80559;-54
2021/09/09 08:11:05;;;;;;;3.17;1.63;;;23.70;68.40;;;;;;4987231;28;80553;-58
2021/09/09 08:13:31;;;;;;;4.60;2.13;;;23.70;68.50;;;;;;4986542;28;83020;-53
2021/09/09 08:15:57;;;;;;;2.90;1.52;;;23.60;68.30;;;;;;4986999;28;81995;-57
2021/09/09 08:18:24;;;;;;;4.70;2.30;;;23.60;68.40;;;;;;4986589;28;82296;-56
2021/09/09 08:20:50;;;;;;;4.10;2.08;;;23.60;68.40;;;;;;4986501;28;81360;-57
2021/09/09 08:23:16;;;;;;;4.07;1.73;;;23.60;68.50;;;;;;4986756;28;81702;-54
2021/09/09 08:25:42;;;;;;;5.60;1.90;;;23.60;68.40;;;;;;4986246;28;81860;-56
2021/09/09 08:28:07;;;;;;;6.53;1.85;;;23.60;68.60;;;;;;4989139;28;81506;-56
2021/09/09 08:30:33;;;;;;;5.03;1.85;;;23.60;68.50;;;;;;4985970;28;81112;-57
2021/09/09 08:32:59;;;;;;;4.50;1.63;;;23.60;68.40;;;;;;4986001;28;81827;-57
2021/09/09 08:35:24;;;;;;;5.68;2.20;;;23.60;68.60;;;;;;4985322;28;84617;-56
2021/09/09 08:37:50;;;;;;;4.22;1.70;;;23.60;68.70;;;;;;4986057;28;84307;-56
2021/09/09 08:40:16;;;;;;;4.10;1.70;;;23.60;68.60;;;;;;4985691;28;82217;-57
2021/09/09 08:42:44;;;;;;;4.10;1.80;;;23.60;68.70;;;;;;4985642;28;83146;-57
2021/09/09 08:45:11;;;;;;;4.68;1.50;;;23.60;68.70;;;;;;4986030;28;81627;-55
2021/09/09 08:47:39;;;;;;;3.97;1.60;;;23.60;68.80;;;;;;4985758;28;83379;-56
2021/09/09 08:50:06;;;;;;;4.47;2.10;;;23.60;68.90;;;;;;4985454;28;81292;-57
2021/09/09 08:52:31;;;;;;;5.13;1.95;;;23.60;68.80;;;;;;4986192;28;83292;-53
2021/09/09 08:54:57;;;;;;;3.10;1.85;;;23.60;68.80;;;;;;4986062;28;81705;-57
2021/09/09 08:57:23;;;;;;;3.17;1.60;;;23.60;68.90;;;;;;4986125;28;81887;-57
2021/09/09 08:59:49;;;;;;;3.30;1.65;;;23.60;68.90;;;;;;4984903;28;82053;-55
2021/09/09 09:02:15;;;;;;;4.68;1.77;;;23.60;68.80;;;;;;4985806;28;81938;-55
2021/09/09 09:04:40;;;;;;;4.25;1.73;;;23.60;68.90;;;;;;4985536;28;83384;-57
2021/09/09 09:07:11;;;;;;;3.45;1.52;;;23.60;68.90;;;;;;4986293;28;83357;-55
2021/09/09 09:09:37;;;;;;;4.13;1.98;;;23.50;69.00;;;;;;4989080;28;81395;-56
2021/09/09 09:12:08;;;;;;;4.22;1.67;;;23.60;69.10;;;;;;4988910;28;83466;-56
2021/09/09 09:14:34;;;;;;;4.90;2.30;;;23.50;69.00;;;;;;4989336;28;81662;-56
2021/09/09 09:17:03;;;;;;;2.72;1.63;;;23.60;69.10;;;;;;4990298;28;82394;-57
2021/09/09 09:19:31;;;;;;;5.05;2.03;;;23.50;69.00;;;;;;4989105;28;81308;-57
2021/09/09 09:22:12;;;;;;;3.40;1.52;;;23.50;69.10;;;;;;4989068;28;82242;-57
2021/09/09 09:24:45;;;;;;;3.08;1.63;;;23.60;69.10;;;;;;4988427;28;83137;-57
2021/09/09 09:27:21;;;;;;;4.07;1.83;;;23.50;69.10;;;;;;4988730;28;84671;-56
2021/09/09 09:30:02;;;;;;;3.38;1.70;;;23.50;69.10;;;;;;4980088;28;81032;-57
2021/09/09 09:32:27;;;;;;;3.72;1.75;;;23.50;69.20;;;;;;4986842;28;83296;-57
2021/09/09 09:35:12;;;;;;;3.22;1.60;;;23.50;69.20;;;;;;4987129;28;84051;-53
2021/09/09 09:37:54;;;;;;;2.50;1.42;;;23.50;69.30;;;;;;4984409;28;83561;-54
2021/09/09 09:40:30;;;;;;;3.00;1.50;;;23.50;69.30;;;;;;4979475;28;81319;-54
2021/09/09 09:42:56;;;;;;;;;;;23.50;69.20;;;;;;4975604;28;84573;-57
2021/09/09 09:45:22;;;;;;;3.67;1.52;;;23.50;69.30;;;;;;4976542;28;82063;-56
2021/09/09 09:47:48;;;;;;;3.30;1.23;;;23.50;69.50;;;;;;4980092;28;83456;-54
2021/09/09 09:50:23;;;;;;;3.90;1.70;;;23.50;69.50;;;;;;4982461;28;82065;-55
2021/09/09 09:52:49;;;;;;;3.88;2.00;;;23.50;69.50;;;;;;4990191;28;81713;-56
2021/09/09 09:55:16;;;;;;;3.55;1.63;;;23.50;69.70;;;;;;4982112;28;82685;-53
2021/09/09 09:57:55;;;;;;;4.80;1.70;;;23.50;69.60;;;;;;4983357;28;81967;-57
2021/09/09 10:00:22;;;;;;;3.13;1.63;;;23.50;69.70;;;;;;4981931;28;81824;-56
2021/09/09 10:02:48;;;;;;;3.20;1.63;;;23.50;69.60;;;;;;4980034;28;81564;-54
2021/09/09 10:05:14;;;;;;;2.92;1.33;;;23.50;69.70;;;;;;4984128;28;81642;-57
2021/09/09 10:07:40;;;;;;;3.63;1.58;;;23.50;69.80;;;;;;4979504;28;81351;-55
2021/09/09 10:10:07;;;;;;;2.85;1.63;;;23.50;69.80;;;;;;4988041;28;81607;-54
2021/09/09 10:12:33;;;;;;;4.18;2.08;;;23.50;69.90;;;;;;4987731;28;83680;-56
2021/09/09 10:15:05;;;;;;;3.42;1.55;;;23.50;69.90;;;;;;4987862;28;82406;-56
2021/09/09 10:17:32;;;;;;;3.75;1.60;;;23.50;69.80;;;;;;4988369;28;84378;-57
2021/09/09 10:20:41;;;;;;;3.75;1.88;;;23.40;69.80;;;;;;4989770;28;81471;-56
2021/09/09 10:23:08;;;;;;;3.47;1.40;;;23.50;69.80;;;;;;4981754;28;81187;-56
2021/09/09 10:25:57;;;;;;;3.40;1.65;;;23.50;69.80;;;;;;4986024;28;82239;-53
2021/09/09 10:28:40;;;;;;;4.10;1.73;;;23.40;69.70;;;;;;4982160;28;81138;-55
2021/09/09 10:31:12;;;;;;;4.63;2.10;;;23.50;69.90;;;;;;4981117;28;81690;-56
2021/09/09 10:33:55;;;;;;;6.32;2.25;;;23.50;69.80;;;;;;4987288;28;81317;-57
2021/09/09 10:36:44;;;;;;;4.18;1.92;;;23.40;69.80;;;;;;4985500;28;82486;-56
2021/09/09 10:39:20;;;;;;;;;;;23.40;69.80;;;;;;4990974;28;83576;-57
2021/09/09 10:41:46;;;;;;;4.20;1.88;;;23.40;69.80;;;;;;4990441;28;82124;-55
2021/09/09 10:44:11;;;;;;;3.55;1.27;;;23.40;69.80;;;;;;4984695;28;83111;-56
2021/09/09 10:46:43;;;;;;;3.75;1.52;;;23.40;69.90;;;;;;4986017;28;81566;-55
2021/09/09 10:49:13;;;;;;;4.13;2.00;;;23.50;70.10;;;;;;4983327;28;83881;-57
2021/09/09 10:52:17;;;;;;;3.22;2.00;;;23.40;69.90;;;;;;4983013;28;82474;-53
2021/09/09 10:55:10;;;;;;;4.80;2.10;;;23.40;69.90;;;;;;4978041;28;81157;-56
2021/09/09 10:57:36;;;;;;;3.53;1.83;;;23.50;70.10;;;;;;4986347;28;81621;-57
2021/09/09 11:00:04;;;;;;;6.53;2.28;;;23.50;70.90;;;;;;4986787;28;83414;-56
2021/09/09 11:02:32;;;;;;;5.43;2.28;;;23.50;70.20;;;;;;4984335;28;81053;-58
2021/09/09 11:05:05;;;;;;;4.15;1.98;;;23.50;70.20;;;;;;4986209;28;81355;-56
2021/09/09 11:07:32;;;;;;;4.00;1.65;;;23.50;70.30;;;;;;4985658;28;86190;-53
2021/09/09 11:10:04;;;;;;;15.77;3.55;;;23.50;70.40;;;;;;4982353;28;82117;-52
2021/09/09 11:12:40;;;;;;;23.30;4.13;;;23.50;70.40;;;;;;4979958;28;82359;-56
2021/09/09 11:15:11;;;;;;;26.52;4.25;;;23.50;70.40;;;;;;4984409;28;81717;-58
2021/09/09 11:17:38;;;;;;;20.90;3.33;;;23.50;70.40;;;;;;4979681;28;82293;-56
2021/09/09 11:20:07;;;;;;;13.95;2.95;;;23.50;70.30;;;;;;4984006;28;82038;-57
2021/09/09 11:22:34;;;;;;;10.88;2.40;;;23.50;70.20;;;;;;4986753;28;81874;-56
2021/09/09 11:25:00;;;;;;;15.68;2.78;;;23.50;70.10;;;;;;4986791;28;82097;-56
2021/09/09 11:27:30;;;;;;;12.77;3.08;;;23.50;70.10;;;;;;4984353;28;82178;-54
2021/09/09 11:29:58;;;;;;;11.88;2.65;;;23.60;70.20;;;;;;4984883;28;82071;-57
2021/09/09 11:32:24;;;;;;;10.10;2.47;;;23.50;70.10;;;;;;4986636;28;81875;-55
2021/09/09 11:34:50;;;;;;;12.52;2.42;;;23.50;70.00;;;;;;4992460;28;81814;-58
2021/09/09 11:37:16;;;;;;;12.02;2.72;;;23.60;70.10;;;;;;4985846;28;82180;-57
2021/09/09 11:39:41;;;;;;;9.65;2.25;;;23.50;70.00;;;;;;4986010;28;81990;-53
2021/09/09 11:42:07;;;;;;;7.13;2.60;;;23.60;70.00;;;;;;4988824;28;81286;-54
2021/09/09 11:44:35;;;;;;;6.78;1.90;;;23.60;69.90;;;;;;4991583;28;80991;-57
2021/09/09 11:47:09;;;;;;;8.68;2.25;;;23.50;69.80;;;;;;4983423;28;82305;-57
2021/09/09 11:49:35;;;;;;;5.40;1.95;;;23.50;69.80;;;;;;4987081;28;81261;-53
2021/09/09 11:52:00;;;;;;;8.35;2.50;;;23.60;69.80;;;;;;4985921;28;81310;-53
2021/09/09 11:54:34;;;;;;;7.68;2.65;;;23.60;69.80;;;;;;4986239;28;83082;-58
2021/09/09 11:57:04;;;;;;;5.20;1.70;;;23.60;69.90;;;;;;4986195;28;83209;-54
2021/09/09 11:59:31;;;;;;;4.70;2.10;;;23.60;69.80;;;;;;4986013;28;82531;-56
2021/09/09 12:02:05;;;;;;;5.78;2.67;;;23.60;69.80;;;;;;4987388;28;81074;-55
2021/09/09 12:04:33;;;;;;;5.80;1.90;;;23.60;69.80;;;;;;4985317;28;82809;-57
2021/09/09 12:06:59;;;;;;;5.25;3.00;;;23.60;69.80;;;;;;4986012;28;81762;-57
2021/09/09 12:09:37;;;;;;;5.85;2.70;;;23.60;69.80;;;;;;4990055;28;81785;-56
2021/09/09 12:12:08;;;;;;;5.88;2.25;;;23.60;70.00;;;;;;4986514;28;81216;-55
2021/09/09 12:14:35;;;;;;;6.20;2.00;;;23.60;70.00;;;;;;4980465;28;81802;-55
2021/09/09 12:17:12;;;;;;;5.40;3.00;;;23.60;70.00;;;;;;4985099;28;82412;-55
2021/09/09 12:19:59;;;;;;;6.40;2.47;;;23.70;70.10;;;;;;4986098;28;81208;-55
2021/09/09 12:22:44;;;;;;;8.60;2.90;;;23.60;70.20;;;;;;4985399;28;81912;-57
2021/09/09 12:25:13;;;;;;;5.05;1.85;;;23.70;70.10;;;;;;4988336;28;82306;-57
2021/09/09 12:28:11;;;;;;;4.95;2.00;;;23.70;70.00;;;;;;4986176;28;82069;-56
2021/09/09 12:30:49;;;;;;;4.38;2.03;;;23.70;70.00;;;;;;4982439;28;81505;-54
2021/09/09 12:33:22;;;;;;;5.78;2.33;;;23.70;70.10;;;;;;4987693;28;81108;-54
2021/09/09 12:36:10;;;;;;;5.57;2.65;;;23.80;70.20;;;;;;4980607;28;83076;-57
2021/09/09 12:38:37;;;;;;;5.07;1.83;;;23.70;70.00;;;;;;4985025;28;81428;-55
2021/09/09 12:41:05;;;;;;;5.47;1.98;;;23.80;70.00;;;;;;4986161;28;81328;-58
2021/09/09 12:43:32;;;;;;;5.63;1.77;;;23.80;69.90;;;;;;4989236;28;81478;-57
2021/09/09 12:46:01;;;;;;;6.45;2.58;;;23.80;69.50;;;;;;4988886;28;81500;-57
2021/09/09 12:48:29;;;;;;;5.93;2.13;;;23.90;69.70;;;;;;4987399;28;82407;-58
2021/09/09 12:50:56;;;;;;;6.15;2.95;;;23.90;69.80;;;;;;4988928;28;83349;-57
2021/09/09 12:53:26;;;;;;;4.15;2.08;;;23.90;70.00;;;;;;4994972;28;81128;-57
2021/09/09 12:55:56;;;;;;;5.32;2.60;;;23.90;69.60;;;;;;4989976;28;81992;-55
2021/09/09 12:58:22;;;;;;;5.07;2.80;;;23.90;69.90;;;;;;4987061;28;84143;-57
2021/09/09 13:00:48;;;;;;;4.28;2.10;;;23.90;70.10;;;;;;4988767;28;82844;-57
2021/09/09 13:03:14;;;;;;;7.82;2.55;;;23.90;69.80;;;;;;4992099;28;81631;-57
2021/09/09 13:05:39;;;;;;;7.47;1.60;;;23.90;69.60;;;;;;4989865;28;81224;-57
2021/09/09 13:08:05;;;;;;;5.93;1.45;;;23.90;69.50;;;;;;4988977;28;83471;-57
2021/09/09 13:10:31;;;;;;;6.82;1.73;;;23.90;69.30;;;;;;4992464;28;81536;-54
2021/09/09 13:12:56;;;;;;;5.35;2.25;;;24.00;69.30;;;;;;4988549;28;83115;-58
2021/09/09 13:15:23;;;;;;;3.33;1.23;;;24.00;69.40;;;;;;4989026;28;83416;-56
2021/09/09 13:17:49;;;;;;;3.55;1.38;;;24.00;69.20;;;;;;4989182;28;82613;-58
2021/09/09 13:20:15;;;;;;;4.65;1.70;;;24.00;69.30;;;;;;4988300;28;83266;-56
2021/09/09 13:22:41;;;;;;;4.05;1.55;;;24.00;69.00;;;;;;4991764;28;81000;-57
2021/09/09 13:25:07;;;;;;;3.65;1.50;;;24.00;68.90;;;;;;4991201;28;81535;-57
2021/09/09 13:27:33;;;;;;;6.60;1.65;;;24.00;69.00;;;;;;4989676;28;82405;-57
2021/09/09 13:29:59;;;;;;;4.03;1.58;;;24.00;69.00;;;;;;4989209;28;82279;-58
2021/09/09 13:32:25;;;;;;;4.93;1.65;;;24.00;69.00;;;;;;4989144;28;81270;-57
2021/09/09 13:34:51;;;;;;;5.15;1.73;;;24.00;68.80;;;;;;4994965;28;82716;-57
2021/09/09 13:37:17;;;;;;;4.57;1.67;;;24.00;68.80;;;;;;4996071;28;82413;-54
2021/09/09 13:39:43;;;;;;;3.70;1.30;;;24.00;68.90;;;;;;4991221;28;83277;-55
2021/09/09 13:42:09;;;;;;;2.75;1.40;;;24.10;68.80;;;;;;4992196;28;80990;-57
2021/09/09 13:44:35;;;;;;;4.07;1.80;;;24.10;68.70;;;;;;4991255;28;82120;-57
2021/09/09 13:47:01;;;;;;;4.65;1.55;;;24.10;68.90;;;;;;4990404;28;82904;-57
2021/09/09 13:49:26;;;;;;;4.72;1.40;;;24.10;68.90;;;;;;4987115;28;82035;-56
2021/09/09 13:51:52;;;;;;;4.95;1.70;;;24.10;68.60;;;;;;4991369;28;82118;-56
2021/09/09 13:54:17;;;;;;;3.15;1.33;;;24.10;68.70;;;;;;4988560;28;81258;-55
2021/09/09 13:56:43;;;;;;;3.55;1.80;;;24.10;68.60;;;;;;4995097;28;82639;-57
2021/09/09 13:59:10;;;;;;;4.60;1.77;;;24.10;68.70;;;;;;4988179;28;81169;-56
2021/09/09 14:01:35;;;;;;;3.45;1.10;;;24.10;68.80;;;;;;4988314;28;82711;-55
2021/09/09 14:04:01;;;;;;;4.43;1.58;;;24.10;68.60;;;;;;4988034;28;81196;-54
2021/09/09 14:06:27;;;;;;;3.00;1.23;;;24.20;68.50;;;;;;4991342;28;83484;-57
2021/09/09 14:08:53;;;;;;;3.95;2.00;;;24.20;68.40;;;;;;4987123;28;82098;-57
2021/09/09 14:11:18;;;;;;;4.70;2.05;;;24.20;68.40;;;;;;4987662;28;81710;-58
2021/09/09 14:13:44;;;;;;;3.17;1.38;;;24.20;68.40;;;;;;4988358;28;81387;-55
2021/09/09 14:16:10;;;;;;;3.92;1.55;;;24.20;68.40;;;;;;4989417;28;82594;-57
2021/09/09 14:18:35;;;;;;;3.90;1.60;;;24.20;68.20;;;;;;4988524;28;81421;-57
2021/09/09 14:21:01;;;;;;;3.97;1.85;;;24.20;68.00;;;;;;4986940;28;81386;-56
2021/09/09 14:23:27;;;;;;;3.65;1.10;;;24.30;68.00;;;;;;4988831;28;82089;-57
2021/09/09 14:25:52;;;;;;;5.35;1.20;;;24.30;68.00;;;;;;4986750;28;84806;-57
2021/09/09 14:28:18;;;;;;;3.40;1.08;;;24.30;67.90;;;;;;4987225;28;82255;-56
2021/09/09 14:30:44;;;;;;;3.28;1.52;;;24.30;68.00;;;;;;4989620;28;81600;-56
2021/09/09 14:33:09;;;;;;;4.50;1.23;;;24.30;67.90;;;;;;4987832;28;81828;-55
2021/09/09 14:35:35;;;;;;;4.78;1.63;;;24.30;67.90;;;;;;4987489;28;83223;-55
2021/09/09 14:38:01;;;;;;;3.97;1.48;;;24.30;67.90;;;;;;4986893;28;81870;-57
2021/09/09 14:40:26;;;;;;;4.38;1.52;;;24.30;67.90;;;;;;4988407;28;81762;-57
2021/09/09 14:42:53;;;;;;;2.80;1.25;;;24.30;67.90;;;;;;4990635;28;82169;-55
2021/09/09 14:45:19;;;;;;;4.32;1.52;;;24.30;67.80;;;;;;4987539;28;82294;-56
2021/09/09 14:47:45;;;;;;;5.75;2.08;;;24.30;67.60;;;;;;4985834;28;81655;-57
2021/09/09 14:50:12;;;;;;;2.90;1.60;;;24.40;67.50;;;;;;4985025;28;82305;-58
2021/09/09 14:52:37;;;;;;;3.13;1.60;;;24.40;67.60;;;;;;4987444;28;81662;-56
2021/09/09 14:55:04;;;;;;;3.92;1.58;;;24.40;67.50;;;;;;4986871;28;82232;-55
2021/09/09 14:57:29;;;;;;;4.00;1.25;;;24.40;67.50;;;;;;4987451;28;83395;-56
2021/09/09 14:59:55;;;;;;;3.35;1.67;;;24.40;67.60;;;;;;4987208;28;81072;-56
2021/09/09 15:02:21;;;;;;;5.03;1.55;;;24.40;67.40;;;;;;4988920;28;81773;-55
2021/09/09 15:04:47;;;;;;;4.88;1.45;;;24.40;67.10;;;;;;4991306;28;84178;-56
2021/09/09 15:07:14;;;;;;;2.10;1.00;;;24.40;67.50;;;;;;4987948;28;82527;-54
2021/09/09 15:09:40;;;;;;;3.50;1.75;;;24.40;67.50;;;;;;4987177;28;81131;-57
2021/09/09 15:12:06;;;;;;;4.38;1.63;;;24.40;67.10;;;;;;4987497;28;82357;-55
2021/09/09 15:14:32;;;;;;;2.50;1.15;;;24.40;66.50;;;;;;4986692;28;83121;-55
2021/09/09 15:16:57;;;;;;;3.53;1.75;;;24.40;67.20;;;;;;4987021;28;84813;-57
2021/09/09 15:19:23;;;;;;;5.55;1.75;;;24.40;67.00;;;;;;4991294;28;81016;-57
2021/09/09 15:21:49;;;;;;;2.80;1.38;;;24.40;67.20;;;;;;4989500;28;81706;-58
2021/09/09 15:24:14;;;;;;;3.95;1.15;;;24.40;67.30;;;;;;4983789;28;82152;-53
2021/09/09 15:26:43;;;;;;;5.18;1.70;;;24.50;67.50;;;;;;4985245;28;83668;-55
2021/09/09 15:29:09;;;;;;;2.72;1.20;;;24.50;67.40;;;;;;4984855;28;82240;-56
2021/09/09 15:31:35;;;;;;;3.90;1.65;;;24.50;67.40;;;;;;4986092;28;85247;-53
2021/09/09 15:34:07;;;;;;;3.30;1.63;;;24.50;67.30;;;;;;4986156;28;81667;-57
2021/09/09 15:36:32;;;;;;;2.25;1.17;;;24.50;67.30;;;;;;4986414;28;83204;-57
2021/09/09 15:38:58;;;;;;;2.25;1.20;;;24.50;67.40;;;;;;4985400;28;83225;-57
2021/09/09 15:41:24;;;;;;;1.90;1.02;;;24.50;67.40;;;;;;4987450;28;81582;-56
2021/09/09 15:43:50;;;;;;;2.42;0.95;;;24.50;67.40;;;;;;4986215;28;83948;-57
2021/09/09 15:46:15;;;;;;;3.53;1.83;;;24.50;67.40;;;;;;4986270;28;82362;-57
2021/09/09 15:48:41;;;;;;;2.75;1.17;;;24.50;67.40;;;;;;4978972;28;81669;-53
2021/09/09 15:51:07;;;;;;;2.17;1.05;;;24.60;67.50;;;;;;4985922;28;82794;-56
2021/09/09 15:53:34;;;;;;;2.60;1.33;;;24.60;67.50;;;;;;4987186;28;81659;-53
2021/09/09 15:56:01;;;;;;;2.55;0.95;;;24.60;67.40;;;;;;4986335;28;82389;-56
2021/09/09 15:58:29;;;;;;;2.35;1.02;;;24.50;67.40;;;;;;4986600;28;81412;-55
2021/09/09 16:00:56;;;;;;;2.30;1.08;;;24.60;67.50;;;;;;4986992;28;83234;-57
2021/09/09 16:03:21;;;;;;;2.60;1.00;;;24.60;67.50;;;;;;4985246;28;85068;-57
2021/09/09 16:05:47;;;;;;;2.63;1.35;;;24.60;67.50;;;;;;4985915;28;83423;-56
2021/09/09 16:08:13;;;;;;;3.03;1.20;;;24.60;67.50;;;;;;4986247;28;80983;-58
2021/09/09 16:10:39;;;;;;;3.83;2.22;;;24.60;67.60;;;;;;4985663;28;83662;-56
2021/09/09 16:13:04;;;;;;;3.58;1.38;;;24.60;67.70;;;;;;4986907;28;81289;-56
2021/09/09 16:15:30;;;;;;;2.80;1.63;;;24.60;67.80;;;;;;4986150;28;81890;-57
2021/09/09 16:17:57;;;;;;;3.45;2.00;;;24.60;67.80;;;;;;4986036;28;81067;-55
2021/09/09 16:20:24;;;;;;;3.20;1.60;;;24.60;67.70;;;;;;4985112;28;83526;-54
2021/09/09 16:22:49;;;;;;;4.28;1.77;;;24.60;67.80;;;;;;4978532;28;82399;-57
2021/09/09 16:25:15;;;;;;;2.58;1.35;;;24.60;67.90;;;;;;4985839;28;83136;-56
2021/09/09 16:27:41;;;;;;;3.15;1.50;;;24.60;67.90;;;;;;4985059;28;82149;-55
2021/09/09 16:30:07;;;;;;;2.75;1.35;;;24.60;67.80;;;;;;4981631;28;81917;-54
2021/09/09 16:32:33;;;;;;;4.38;1.70;;;24.60;67.80;;;;;;4989311;28;83738;-54
2021/09/09 16:34:59;;;;;;;3.58;1.60;;;24.60;67.80;;;;;;4984816;28;82347;-56
2021/09/09 16:37:25;;;;;;;3.63;1.58;;;24.60;67.70;;;;;;4985033;28;81436;-57
2021/09/09 16:39:50;;;;;;;2.95;1.25;;;24.60;67.80;;;;;;4983315;28;83132;-57
2021/09/09 16:42:16;;;;;;;2.38;1.27;;;24.60;67.70;;;;;;4983957;28;83199;-55
2021/09/09 16:44:42;;;;;;;7.15;1.23;;;24.60;67.70;;;;;;4983091;28;81846;-54
2021/09/09 16:47:07;;;;;;;3.88;1.27;;;24.60;67.70;;;;;;4983911;28;81890;-53
2021/09/09 16:49:33;;;;;;;5.63;1.15;;;24.60;67.90;;;;;;4980034;28;82294;-56
2021/09/09 16:51:59;;;;;;;3.03;0.98;;;24.60;68.20;;;;;;4989911;28;84838;-54
2021/09/09 16:54:25;;;;;;;2.33;1.00;;;24.60;68.30;;;;;;4981093;28;82089;-56
2021/09/09 16:56:52;;;;;;;3.10;0.93;;;24.60;68.60;;;;;;4985697;28;81129;-56
2021/09/09 16:59:20;;;;;;;3.15;1.00;;;24.60;68.70;;;;;;4984911;28;83006;-54
2021/09/09 17:01:47;;;;;;;6.82;1.13;;;24.60;68.80;;;;;;4983047;28;84080;-56
2021/09/09 17:04:14;;;;;;;2.55;1.10;;;24.60;69.00;;;;;;4978070;28;81118;-57
2021/09/09 17:06:39;;;;;;;3.30;1.20;;;24.60;69.00;;;;;;4986417;28;81628;-55
2021/09/09 17:09:05;;;;;;;2.60;0.80;;;24.60;69.20;;;;;;4986647;28;80882;-53